sensor_id;sensor_type;location;lat;lon;timestamp;pressure;altitude;pressure_sealevel;temperature;humidity
80938;BME280;70395;51.382;7.074;2023-12-20T00:01:50;100292.91;;;10.01;70.77
80938;BME280;70395;51.382;7.074;2023-12-20T00:04:16;100288.50;;;10.00;70.97
80938;BME280;70395;51.382;7.074;2023-12-20T00:06:42;100289.69;;;9.98;70.84
80938;BME280;70395;51.382;7.074;2023-12-20T00:09:07;100296.84;;;9.97;71.08
80938;BME280;70395;51.382;7.074;2023-12-20T00:11:33;100297.13;;;9.94;70.85
80938;BME280;70395;51.382;7.074;2023-12-20T00:13:59;100289.09;;;9.94;71.06
80938;BME280;70395;51.382;7.074;2023-12-20T00:16:25;100292.91;;;9.91;70.89
80938;BME280;70395;51.382;7.074;2023-12-20T00:18:51;100289.53;;;9.89;70.75
80938;BME280;70395;51.382;7.074;2023-12-20T00:21:17;100292.34;;;9.88;70.69
80938;BME280;70395;51.382;7.074;2023-12-20T00:23:43;100289.69;;;9.88;70.76
80938;BME280;70395;51.382;7.074;2023-12-20T00:26:08;100296.00;;;9.87;70.84
80938;BME280;70395;51.382;7.074;2023-12-20T00:28:34;100305.03;;;9.86;70.58
80938;BME280;70395;51.382;7.074;2023-12-20T00:31:00;100304.19;;;9.85;70.80
80938;BME280;70395;51.382;7.074;2023-12-20T00:33:26;100308.69;;;9.85;70.78
80938;BME280;70395;51.382;7.074;2023-12-20T00:35:52;100308.81;;;9.83;70.70
80938;BME280;70395;51.382;7.074;2023-12-20T00:38:18;100311.81;;;9.80;70.52
80938;BME280;70395;51.382;7.074;2023-12-20T00:40:43;100306.88;;;9.75;70.62
80938;BME280;70395;51.382;7.074;2023-12-20T00:43:09;100317.00;;;9.72;70.61
80938;BME280;70395;51.382;7.074;2023-12-20T00:45:35;100310.25;;;9.67;70.60
80938;BME280;70395;51.382;7.074;2023-12-20T00:48:01;100315.88;;;9.64;70.42
80938;BME280;70395;51.382;7.074;2023-12-20T00:50:26;100325.88;;;9.62;70.34
80938;BME280;70395;51.382;7.074;2023-12-20T00:52:52;100329.81;;;9.58;70.54
80938;BME280;70395;51.382;7.074;2023-12-20T00:55:20;100332.91;;;9.53;70.35
80938;BME280;70395;51.382;7.074;2023-12-20T00:57:46;100340.22;;;9.51;70.64
80938;BME280;70395;51.382;7.074;2023-12-20T01:00:12;100341.47;;;9.47;70.40
80938;BME280;70395;51.382;7.074;2023-12-20T01:02:39;100323.00;;;9.44;70.62
80938;BME280;70395;51.382;7.074;2023-12-20T01:05:05;100331.19;;;9.42;70.65
80938;BME280;70395;51.382;7.074;2023-12-20T01:07:33;100328.66;;;9.41;70.71
80938;BME280;70395;51.382;7.074;2023-12-20T01:09:58;100326.84;;;9.41;70.76
80938;BME280;70395;51.382;7.074;2023-12-20T01:12:24;100323.31;;;9.41;70.68
80938;BME280;70395;51.382;7.074;2023-12-20T01:14:50;100321.59;;;9.40;70.49
80938;BME280;70395;51.382;7.074;2023-12-20T01:17:16;100315.41;;;9.39;70.43
80938;BME280;70395;51.382;7.074;2023-12-20T01:19:41;100318.50;;;9.34;70.64
80938;BME280;70395;51.382;7.074;2023-12-20T01:22:07;100313.56;;;9.30;70.25
80938;BME280;70395;51.382;7.074;2023-12-20T01:24:33;100311.88;;;9.29;70.37
80938;BME280;70395;51.382;7.074;2023-12-20T01:26:59;100314.69;;;9.27;70.27
80938;BME280;70395;51.382;7.074;2023-12-20T01:29:25;100330.03;;;9.25;70.54
80938;BME280;70395;51.382;7.074;2023-12-20T01:31:51;100338.19;;;9.23;70.37
80938;BME280;70395;51.382;7.074;2023-12-20T01:34:17;100343.56;;;9.23;70.23
80938;BME280;70395;51.382;7.074;2023-12-20T01:36:43;100343.41;;;9.25;70.11
80938;BME280;70395;51.382;7.074;2023-12-20T01:39:09;100341.84;;;9.22;69.98
80938;BME280;70395;51.382;7.074;2023-12-20T01:41:34;100344.66;;;9.21;69.96
80938;BME280;70395;51.382;7.074;2023-12-20T01:44:00;100354.50;;;9.20;69.89
80938;BME280;70395;51.382;7.074;2023-12-20T01:46:26;100353.66;;;9.20;70.01
80938;BME280;70395;51.382;7.074;2023-12-20T01:48:53;100351.84;;;9.20;69.93
80938;BME280;70395;51.382;7.074;2023-12-20T01:51:20;100350.03;;;9.21;69.94
80938;BME280;70395;51.382;7.074;2023-12-20T01:53:47;100357.19;;;9.20;70.03
80938;BME280;70395;51.382;7.074;2023-12-20T01:56:15;100358.16;;;9.19;70.00
80938;BME280;70395;51.382;7.074;2023-12-20T01:58:44;100357.34;;;9.19;69.73
80938;BME280;70395;51.382;7.074;2023-12-20T02:01:12;100339.44;;;9.19;69.66
80938;BME280;70395;51.382;7.074;2023-12-20T02:03:41;100335.09;;;9.18;69.81
80938;BME280;70395;51.382;7.074;2023-12-20T02:06:08;100347.88;;;9.15;69.69
80938;BME280;70395;51.382;7.074;2023-12-20T02:08:35;100351.94;;;9.09;69.72
80938;BME280;70395;51.382;7.074;2023-12-20T02:11:01;100344.59;;;9.01;69.54
80938;BME280;70395;51.382;7.074;2023-12-20T02:13:27;100346.97;;;8.94;69.75
80938;BME280;70395;51.382;7.074;2023-12-20T02:15:54;100349.31;;;8.87;69.65
80938;BME280;70395;51.382;7.074;2023-12-20T02:18:21;100344.66;;;8.80;69.52
80938;BME280;70395;51.382;7.074;2023-12-20T02:20:46;100342.88;;;8.69;69.62
80938;BME280;70395;51.382;7.074;2023-12-20T02:23:12;100342.84;;;8.59;69.86
80938;BME280;70395;51.382;7.074;2023-12-20T02:25:38;100345.16;;;8.52;69.95
80938;BME280;70395;51.382;7.074;2023-12-20T02:28:05;100354.28;;;8.49;69.91
80938;BME280;70395;51.382;7.074;2023-12-20T02:30:31;100341.78;;;8.50;70.03
80938;BME280;70395;51.382;7.074;2023-12-20T02:32:59;100346.66;;;8.44;69.90
80938;BME280;70395;51.382;7.074;2023-12-20T02:35:26;100348.88;;;8.39;69.75
80938;BME280;70395;51.382;7.074;2023-12-20T02:37:52;100347.31;;;8.37;69.84
80938;BME280;70395;51.382;7.074;2023-12-20T02:40:17;100350.38;;;8.32;70.06
80938;BME280;70395;51.382;7.074;2023-12-20T02:42:43;100354.88;;;8.31;70.03
80938;BME280;70395;51.382;7.074;2023-12-20T02:45:09;100355.72;;;8.32;70.03
80938;BME280;70395;51.382;7.074;2023-12-20T02:47:35;100359.50;;;8.29;70.01
80938;BME280;70395;51.382;7.074;2023-12-20T02:50:01;100349.78;;;8.28;69.97
80938;BME280;70395;51.382;7.074;2023-12-20T02:52:29;100356.81;;;8.29;70.09
80938;BME280;70395;51.382;7.074;2023-12-20T02:54:54;100347.84;;;8.30;69.97
80938;BME280;70395;51.382;7.074;2023-12-20T02:57:20;100352.78;;;8.35;70.02
80938;BME280;70395;51.382;7.074;2023-12-20T02:59:46;100348.16;;;8.37;69.87
80938;BME280;70395;51.382;7.074;2023-12-20T03:02:12;100357.84;;;8.38;69.67
80938;BME280;70395;51.382;7.074;2023-12-20T03:04:38;100360.53;;;8.38;69.63
80938;BME280;70395;51.382;7.074;2023-12-20T03:07:04;100360.53;;;8.38;70.12
80938;BME280;70395;51.382;7.074;2023-12-20T03:09:30;100357.84;;;8.38;69.75
80938;BME280;70395;51.382;7.074;2023-12-20T03:11:55;100355.19;;;8.38;69.64
80938;BME280;70395;51.382;7.074;2023-12-20T03:14:21;100360.41;;;8.40;69.76
80938;BME280;70395;51.382;7.074;2023-12-20T03:16:50;100345.34;;;8.39;69.61
80938;BME280;70395;51.382;7.074;2023-12-20T03:19:17;100355.94;;;8.40;69.70
80938;BME280;70395;51.382;7.074;2023-12-20T03:21:45;100353.25;;;8.40;69.64
80938;BME280;70395;51.382;7.074;2023-12-20T03:24:11;100360.41;;;8.40;69.62
80938;BME280;70395;51.382;7.074;2023-12-20T03:26:37;100350.84;;;8.37;69.68
80938;BME280;70395;51.382;7.074;2023-12-20T03:29:02;100352.78;;;8.35;69.31
80938;BME280;70395;51.382;7.074;2023-12-20T03:31:28;100355.47;;;8.35;69.19
80938;BME280;70395;51.382;7.074;2023-12-20T03:33:54;100343.31;;;8.31;69.13
80938;BME280;70395;51.382;7.074;2023-12-20T03:36:20;100356.09;;;8.27;69.39
80938;BME280;70395;51.382;7.074;2023-12-20T03:38:46;100343.13;;;8.22;69.42
80938;BME280;70395;51.382;7.074;2023-12-20T03:41:12;100345.91;;;8.21;69.24
80938;BME280;70395;51.382;7.074;2023-12-20T03:43:39;100346.06;;;8.19;69.41
80938;BME280;70395;51.382;7.074;2023-12-20T03:46:05;100326.66;;;8.17;69.60
80938;BME280;70395;51.382;7.074;2023-12-20T03:48:31;100334.91;;;8.14;69.37
80938;BME280;70395;51.382;7.074;2023-12-20T03:50:57;100341.25;;;8.13;69.22
80938;BME280;70395;51.382;7.074;2023-12-20T03:53:23;100331.53;;;8.12;69.31
80938;BME280;70395;51.382;7.074;2023-12-20T03:55:49;100338.97;;;8.08;69.26
80938;BME280;70395;51.382;7.074;2023-12-20T03:58:14;100331.44;;;8.02;69.49
80938;BME280;70395;51.382;7.074;2023-12-20T04:00:40;100337.03;;;7.99;69.44
80938;BME280;70395;51.382;7.074;2023-12-20T04:03:07;100342.53;;;7.97;69.64
80938;BME280;70395;51.382;7.074;2023-12-20T04:05:33;100351.78;;;7.93;69.49
80938;BME280;70395;51.382;7.074;2023-12-20T04:08:01;100343.16;;;7.89;69.49
80938;BME280;70395;51.382;7.074;2023-12-20T04:10:28;100342.28;;;7.89;69.68
80938;BME280;70395;51.382;7.074;2023-12-20T04:12:54;100339.63;;;7.89;69.68
80938;BME280;70395;51.382;7.074;2023-12-20T04:15:20;100337.09;;;7.87;69.48
80938;BME280;70395;51.382;7.074;2023-12-20T04:17:46;100332.00;;;7.84;69.62
80938;BME280;70395;51.382;7.074;2023-12-20T04:20:12;100327.75;;;7.82;69.56
80938;BME280;70395;51.382;7.074;2023-12-20T04:22:38;100331.66;;;7.77;69.73
80938;BME280;70395;51.382;7.074;2023-12-20T04:25:04;100333.47;;;7.77;69.74
80938;BME280;70395;51.382;7.074;2023-12-20T04:27:30;100326.56;;;7.74;70.02
80938;BME280;70395;51.382;7.074;2023-12-20T04:29:56;100337.38;;;7.73;69.88
80938;BME280;70395;51.382;7.074;2023-12-20T04:32:22;100331.47;;;7.69;69.98
80938;BME280;70395;51.382;7.074;2023-12-20T04:34:48;100336.06;;;7.67;70.02
80938;BME280;70395;51.382;7.074;2023-12-20T04:37:14;100333.38;;;7.67;70.05
80938;BME280;70395;51.382;7.074;2023-12-20T04:39:40;100334.13;;;7.69;70.02
80938;BME280;70395;51.382;7.074;2023-12-20T04:42:07;100334.84;;;7.71;69.79
80938;BME280;70395;51.382;7.074;2023-12-20T04:44:33;100336.53;;;7.72;70.08
80938;BME280;70395;51.382;7.074;2023-12-20T04:46:59;100332.91;;;7.73;69.88
80938;BME280;70395;51.382;7.074;2023-12-20T04:49:25;100342.59;;;7.74;70.05
80938;BME280;70395;51.382;7.074;2023-12-20T04:51:51;100341.38;;;7.79;69.60
80938;BME280;70395;51.382;7.074;2023-12-20T04:54:17;100335.06;;;7.80;69.74
80938;BME280;70395;51.382;7.074;2023-12-20T04:56:42;100348.41;;;7.80;70.08
80938;BME280;70395;51.382;7.074;2023-12-20T04:59:08;100353.63;;;7.81;69.72
80938;BME280;70395;51.382;7.074;2023-12-20T05:01:34;100344.53;;;7.84;69.61
80938;BME280;70395;51.382;7.074;2023-12-20T05:04:00;100351.44;;;7.86;69.73
80938;BME280;70395;51.382;7.074;2023-12-20T05:06:26;100348.63;;;7.88;69.45
80938;BME280;70395;51.382;7.074;2023-12-20T05:08:52;100360.03;;;7.90;69.56
80938;BME280;70395;51.382;7.074;2023-12-20T05:11:18;100362.69;;;7.90;69.24
80938;BME280;70395;51.382;7.074;2023-12-20T05:13:47;100353.97;;;7.88;69.52
80938;BME280;70395;51.382;7.074;2023-12-20T05:16:13;100346.81;;;7.88;69.47
80938;BME280;70395;51.382;7.074;2023-12-20T05:18:40;100352.25;;;7.87;69.53
80938;BME280;70395;51.382;7.074;2023-12-20T05:21:06;100351.31;;;7.88;69.55
80938;BME280;70395;51.382;7.074;2023-12-20T05:23:32;100349.59;;;7.87;69.30
80938;BME280;70395;51.382;7.074;2023-12-20T05:25:58;100347.91;;;7.86;69.13
80938;BME280;70395;51.382;7.074;2023-12-20T05:28:24;100357.75;;;7.85;69.20
80938;BME280;70395;51.382;7.074;2023-12-20T05:30:51;100353.50;;;7.83;69.33
80938;BME280;70395;51.382;7.074;2023-12-20T05:33:17;100345.00;;;7.77;69.34
80938;BME280;70395;51.382;7.074;2023-12-20T05:35:42;100346.84;;;7.77;69.46
80938;BME280;70395;51.382;7.074;2023-12-20T05:38:08;100354.97;;;7.75;69.47
80938;BME280;70395;51.382;7.074;2023-12-20T05:40:34;100343.44;;;7.75;69.46
80938;BME280;70395;51.382;7.074;2023-12-20T05:43:00;100340.91;;;7.73;69.43
80938;BME280;70395;51.382;7.074;2023-12-20T05:45:26;100342.47;;;7.76;69.23
80938;BME280;70395;51.382;7.074;2023-12-20T05:47:51;100332.75;;;7.75;69.47
80938;BME280;70395;51.382;7.074;2023-12-20T05:50:17;100336.16;;;7.77;69.50
80938;BME280;70395;51.382;7.074;2023-12-20T05:52:44;100342.34;;;7.77;69.59
80938;BME280;70395;51.382;7.074;2023-12-20T05:55:09;100344.16;;;7.77;69.36
80938;BME280;70395;51.382;7.074;2023-12-20T05:57:35;100337.88;;;7.78;69.46
80938;BME280;70395;51.382;7.074;2023-12-20T06:00:01;100335.06;;;7.80;69.50
80938;BME280;70395;51.382;7.074;2023-12-20T06:02:27;100335.91;;;7.80;69.69
80938;BME280;70395;51.382;7.074;2023-12-20T06:04:53;100341.97;;;7.82;69.46
80938;BME280;70395;51.382;7.074;2023-12-20T06:07:19;100335.78;;;7.82;69.45
80938;BME280;70395;51.382;7.074;2023-12-20T06:09:45;100327.91;;;7.80;69.12
80938;BME280;70395;51.382;7.074;2023-12-20T06:12:10;100332.38;;;7.80;69.39
80938;BME280;70395;51.382;7.074;2023-12-20T06:14:36;100336.75;;;7.81;69.42
80938;BME280;70395;51.382;7.074;2023-12-20T06:17:02;100349.25;;;7.80;69.37
80938;BME280;70395;51.382;7.074;2023-12-20T06:19:28;100346.59;;;7.80;69.27
80938;BME280;70395;51.382;7.074;2023-12-20T06:21:54;100341.50;;;7.77;69.27
80938;BME280;70395;51.382;7.074;2023-12-20T06:24:20;100346.72;;;7.79;69.29
80938;BME280;70395;51.382;7.074;2023-12-20T06:26:47;100343.06;;;7.80;69.18
80938;BME280;70395;51.382;7.074;2023-12-20T06:29:12;100343.06;;;7.80;69.17
80938;BME280;70395;51.382;7.074;2023-12-20T06:31:38;100339.56;;;7.79;69.15
80938;BME280;70395;51.382;7.074;2023-12-20T06:34:04;100338.00;;;7.76;69.32
80938;BME280;70395;51.382;7.074;2023-12-20T06:36:30;100349.50;;;7.77;69.32
80938;BME280;70395;51.382;7.074;2023-12-20T06:38:56;100342.59;;;7.74;69.27
80938;BME280;70395;51.382;7.074;2023-12-20T06:41:22;100339.81;;;7.76;69.21
80938;BME280;70395;51.382;7.074;2023-12-20T06:43:50;100337.00;;;7.77;69.55
80938;BME280;70395;51.382;7.074;2023-12-20T06:46:17;100341.38;;;7.79;69.20
80938;BME280;70395;51.382;7.074;2023-12-20T06:48:42;100338.72;;;7.79;69.22
80938;BME280;70395;51.382;7.074;2023-12-20T06:51:16;100341.50;;;7.77;69.43
80938;BME280;70395;51.382;7.074;2023-12-20T06:53:42;100340.53;;;7.78;69.41
80938;BME280;70395;51.382;7.074;2023-12-20T06:56:10;100345.63;;;7.81;69.48
80938;BME280;70395;51.382;7.074;2023-12-20T06:58:37;100349.00;;;7.83;69.24
80938;BME280;70395;51.382;7.074;2023-12-20T07:01:03;100342.81;;;7.83;69.24
80938;BME280;70395;51.382;7.074;2023-12-20T07:03:30;100350.81;;;7.83;69.09
80938;BME280;70395;51.382;7.074;2023-12-20T07:05:55;100349.00;;;7.83;68.86
80938;BME280;70395;51.382;7.074;2023-12-20T07:08:21;100340.16;;;7.83;69.05
80938;BME280;70395;51.382;7.074;2023-12-20T07:10:47;100346.19;;;7.85;69.24
80938;BME280;70395;51.382;7.074;2023-12-20T07:13:13;100322.19;;;7.85;68.80
80938;BME280;70395;51.382;7.074;2023-12-20T07:15:39;100323.03;;;7.85;69.01
80938;BME280;70395;51.382;7.074;2023-12-20T07:18:05;100318.53;;;7.86;68.81
80938;BME280;70395;51.382;7.074;2023-12-20T07:20:32;100331.91;;;7.86;68.90
80938;BME280;70395;51.382;7.074;2023-12-20T07:22:57;100325.56;;;7.87;68.99
80938;BME280;70395;51.382;7.074;2023-12-20T07:25:23;100327.97;;;7.90;68.88
80938;BME280;70395;51.382;7.074;2023-12-20T07:27:49;100333.19;;;7.92;68.75
80938;BME280;70395;51.382;7.074;2023-12-20T07:30:15;100336.47;;;7.95;68.72
80938;BME280;70395;51.382;7.074;2023-12-20T07:32:41;100334.66;;;7.96;68.64
80938;BME280;70395;51.382;7.074;2023-12-20T07:35:07;100347.00;;;7.97;68.24
80938;BME280;70395;51.382;7.074;2023-12-20T07:37:33;100347.00;;;7.97;68.42
80938;BME280;70395;51.382;7.074;2023-12-20T07:39:59;100352.34;;;7.97;68.35
80938;BME280;70395;51.382;7.074;2023-12-20T07:42:25;100340.00;;;7.96;68.12
80938;BME280;70395;51.382;7.074;2023-12-20T07:44:50;100339.00;;;7.97;68.35
80938;BME280;70395;51.382;7.074;2023-12-20T07:47:16;100342.53;;;7.97;68.74
80938;BME280;70395;51.382;7.074;2023-12-20T07:49:49;100342.53;;;7.97;68.35
80938;BME280;70395;51.382;7.074;2023-12-20T07:52:18;100339.72;;;7.99;68.35
80938;BME280;70395;51.382;7.074;2023-12-20T07:54:45;100343.13;;;8.01;68.44
80938;BME280;70395;51.382;7.074;2023-12-20T07:57:11;100338.50;;;8.03;68.39
80938;BME280;70395;51.382;7.074;2023-12-20T07:59:38;100347.94;;;8.07;68.36
80938;BME280;70395;51.382;7.074;2023-12-20T08:02:04;100340.66;;;8.09;68.39
80938;BME280;70395;51.382;7.074;2023-12-20T08:04:30;100342.34;;;8.10;68.36
80938;BME280;70395;51.382;7.074;2023-12-20T08:06:55;100331.78;;;8.09;68.24
80938;BME280;70395;51.382;7.074;2023-12-20T08:09:21;100325.72;;;8.07;68.29
80938;BME280;70395;51.382;7.074;2023-12-20T08:11:48;100331.06;;;8.07;68.34
80938;BME280;70395;51.382;7.074;2023-12-20T08:14:15;100332.78;;;8.08;68.32
80938;BME280;70395;51.382;7.074;2023-12-20T08:16:41;100335.19;;;8.11;68.35
80938;BME280;70395;51.382;7.074;2023-12-20T08:19:07;100339.41;;;8.14;68.00
80938;BME280;70395;51.382;7.074;2023-12-20T08:21:34;100351.94;;;8.13;68.08
80938;BME280;70395;51.382;7.074;2023-12-20T08:24:00;100342.94;;;8.14;67.84
80938;BME280;70395;51.382;7.074;2023-12-20T08:26:29;100348.28;;;8.14;67.80
80938;BME280;70395;51.382;7.074;2023-12-20T08:28:55;100353.34;;;8.17;68.11
80938;BME280;70395;51.382;7.074;2023-12-20T08:31:20;100350.69;;;8.17;67.96
80938;BME280;70395;51.382;7.074;2023-12-20T08:33:48;100346.06;;;8.19;67.92
80938;BME280;70395;51.382;7.074;2023-12-20T08:36:14;100346.66;;;8.23;67.97
80938;BME280;70395;51.382;7.074;2023-12-20T08:38:40;100353.56;;;8.26;67.84
80938;BME280;70395;51.382;7.074;2023-12-20T08:41:07;100353.56;;;8.26;67.51
80938;BME280;70395;51.382;7.074;2023-12-20T08:43:34;100349.06;;;8.26;67.54
80938;BME280;70395;51.382;7.074;2023-12-20T08:46:01;100348.22;;;8.26;67.56
80938;BME280;70395;51.382;7.074;2023-12-20T08:48:28;100343.72;;;8.26;67.56
80938;BME280;70395;51.382;7.074;2023-12-20T08:50:54;100355.25;;;8.27;67.72
80938;BME280;70395;51.382;7.074;2023-12-20T08:53:20;100350.63;;;8.29;67.52
80938;BME280;70395;51.382;7.074;2023-12-20T08:55:47;100353.19;;;8.30;67.49
80938;BME280;70395;51.382;7.074;2023-12-20T08:58:13;100357.44;;;8.33;67.39
80938;BME280;70395;51.382;7.074;2023-12-20T09:00:39;100354.75;;;8.33;67.34
80938;BME280;70395;51.382;7.074;2023-12-20T09:03:06;100348.31;;;8.36;67.11
80938;BME280;70395;51.382;7.074;2023-12-20T09:05:31;100352.09;;;8.33;67.28
80938;BME280;70395;51.382;7.074;2023-12-20T09:07:57;100337.72;;;8.34;67.26
80938;BME280;70395;51.382;7.074;2023-12-20T09:10:23;100342.22;;;8.33;67.20
80938;BME280;70395;51.382;7.074;2023-12-20T09:12:53;100348.56;;;8.32;67.09
80938;BME280;70395;51.382;7.074;2023-12-20T09:15:26;100342.22;;;8.33;67.10
80938;BME280;70395;51.382;7.074;2023-12-20T09:17:53;100319.72;;;8.36;67.04
80938;BME280;70395;51.382;7.074;2023-12-20T09:20:19;100338.19;;;8.39;67.13
80938;BME280;70395;51.382;7.074;2023-12-20T09:22:45;100336.94;;;8.43;67.12
80938;BME280;70395;51.382;7.074;2023-12-20T09:25:12;100342.28;;;8.43;66.83
80938;BME280;70395;51.382;7.074;2023-12-20T09:27:39;100336.81;;;8.45;66.81
80938;BME280;70395;51.382;7.074;2023-12-20T09:30:06;100335.13;;;8.44;66.54
80938;BME280;70395;51.382;7.074;2023-12-20T09:32:32;100345.81;;;8.44;66.82
80938;BME280;70395;51.382;7.074;2023-12-20T09:35:02;100340.72;;;8.41;66.81
80938;BME280;70395;51.382;7.074;2023-12-20T09:37:28;100346.81;;;8.43;66.86
80938;BME280;70395;51.382;7.074;2023-12-20T09:39:54;100342.88;;;8.47;66.81
80938;BME280;70395;51.382;7.074;2023-12-20T09:42:38;100343.00;;;8.45;66.51
80938;BME280;70395;51.382;7.074;2023-12-20T09:45:10;100327.69;;;8.48;66.44
80938;BME280;70395;51.382;7.074;2023-12-20T09:47:40;100329.53;;;8.47;66.66
80938;BME280;70395;51.382;7.074;2023-12-20T09:50:06;100332.31;;;8.45;66.45
80938;BME280;70395;51.382;7.074;2023-12-20T09:52:36;100332.19;;;8.47;66.57
80938;BME280;70395;51.382;7.074;2023-12-20T09:55:04;100331.94;;;8.50;66.43
80938;BME280;70395;51.382;7.074;2023-12-20T09:57:34;100337.00;;;8.53;66.36
80938;BME280;70395;51.382;7.074;2023-12-20T09:59:59;100328.00;;;8.54;66.31
80938;BME280;70395;51.382;7.074;2023-12-20T10:02:26;100339.41;;;8.56;66.51
80938;BME280;70395;51.382;7.074;2023-12-20T10:04:54;100338.34;;;8.59;66.37
80938;BME280;70395;51.382;7.074;2023-12-20T10:07:20;100338.19;;;8.61;66.22
80938;BME280;70395;51.382;7.074;2023-12-20T10:09:47;100326.69;;;8.60;66.01
80938;BME280;70395;51.382;7.074;2023-12-20T10:12:14;100318.66;;;8.60;66.11
80938;BME280;70395;51.382;7.074;2023-12-20T10:14:40;100329.47;;;8.59;66.19
80938;BME280;70395;51.382;7.074;2023-12-20T10:17:06;100330.31;;;8.59;66.33
80938;BME280;70395;51.382;7.074;2023-12-20T10:19:33;100318.88;;;8.57;66.05
80938;BME280;70395;51.382;7.074;2023-12-20T10:22:04;100323.38;;;8.56;66.42
80938;BME280;70395;51.382;7.074;2023-12-20T10:24:31;100313.31;;;8.60;66.22
80938;BME280;70395;51.382;7.074;2023-12-20T10:27:08;100308.94;;;8.59;66.36
80938;BME280;70395;51.382;7.074;2023-12-20T10:29:37;100310.88;;;8.57;66.28
80938;BME280;70395;51.382;7.074;2023-12-20T10:32:26;100297.91;;;8.52;66.17
80938;BME280;70395;51.382;7.074;2023-12-20T10:34:54;100299.72;;;8.52;66.33
80938;BME280;70395;51.382;7.074;2023-12-20T10:37:20;100296.78;;;8.55;66.32
80938;BME280;70395;51.382;7.074;2023-12-20T10:39:52;100304.66;;;8.56;66.30
80938;BME280;70395;51.382;7.074;2023-12-20T10:42:22;100296.66;;;8.56;66.26
80938;BME280;70395;51.382;7.074;2023-12-20T10:44:49;100301.88;;;8.58;66.24
80938;BME280;70395;51.382;7.074;2023-12-20T10:47:17;100300.06;;;8.59;65.92
80938;BME280;70395;51.382;7.074;2023-12-20T10:49:45;100303.81;;;8.56;66.12
80938;BME280;70395;51.382;7.074;2023-12-20T10:52:12;100298.47;;;8.56;66.43
80938;BME280;70395;51.382;7.074;2023-12-20T10:54:42;100289.47;;;8.57;66.15
80938;BME280;70395;51.382;7.074;2023-12-20T10:57:08;100280.63;;;8.56;65.71
80938;BME280;70395;51.382;7.074;2023-12-20T10:59:37;100283.44;;;8.55;66.19
80938;BME280;70395;51.382;7.074;2023-12-20T11:02:05;100292.28;;;8.55;66.04
80938;BME280;70395;51.382;7.074;2023-12-20T11:07:58;100287.22;;;8.52;65.91
80938;BME280;70395;51.382;7.074;2023-12-20T11:10:43;100303.38;;;8.51;66.14
80938;BME280;70395;51.382;7.074;2023-12-20T11:13:30;100296.19;;;8.51;66.16
80938;BME280;70395;51.382;7.074;2023-12-20T11:15:59;100291.44;;;8.55;66.11
80938;BME280;70395;51.382;7.074;2023-12-20T11:18:31;100301.16;;;8.56;66.18
80938;BME280;70395;51.382;7.074;2023-12-20T11:21:02;100288.53;;;8.58;66.19
80938;BME280;70395;51.382;7.074;2023-12-20T11:23:31;100295.44;;;8.61;66.23
80938;BME280;70395;51.382;7.074;2023-12-20T11:25:59;100285.34;;;8.64;66.11
80938;BME280;70395;51.382;7.074;2023-12-20T11:28:27;100283.38;;;8.66;66.24
80938;BME280;70395;51.382;7.074;2023-12-20T11:30:57;100289.56;;;8.67;66.18
80938;BME280;70395;51.382;7.074;2023-12-20T11:33:39;100270.97;;;8.65;66.10
80938;BME280;70395;51.382;7.074;2023-12-20T11:36:14;100280.69;;;8.66;66.11
80938;BME280;70395;51.382;7.074;2023-12-20T11:38:57;100281.41;;;8.69;66.31
80938;BME280;70395;51.382;7.074;2023-12-20T11:41:26;100280.03;;;8.74;66.13
80938;BME280;70395;51.382;7.074;2023-12-20T11:43:56;100279.75;;;8.77;66.18
80938;BME280;70395;51.382;7.074;2023-12-20T11:46:22;100280.47;;;8.80;66.06
80938;BME280;70395;51.382;7.074;2023-12-20T11:48:48;100271.59;;;8.79;65.94
80938;BME280;70395;51.382;7.074;2023-12-20T11:51:14;100258.69;;;8.84;66.22
80938;BME280;70395;51.382;7.074;2023-12-20T11:53:41;100251.66;;;8.93;66.10
80938;BME280;70395;51.382;7.074;2023-12-20T11:56:10;100257.75;;;9.05;65.83
80938;BME280;70395;51.382;7.074;2023-12-20T11:58:37;100255.94;;;9.16;65.92
80938;BME280;70395;51.382;7.074;2023-12-20T12:01:03;100261.84;;;9.19;65.71
80938;BME280;70395;51.382;7.074;2023-12-20T12:03:30;100252.28;;;9.17;65.37
80938;BME280;70395;51.382;7.074;2023-12-20T12:05:56;100254.13;;;9.16;65.63
80938;BME280;70395;51.382;7.074;2023-12-20T12:08:23;100248.75;;;9.16;65.65
80938;BME280;70395;51.382;7.074;2023-12-20T12:10:49;100235.38;;;9.16;65.79
80938;BME280;70395;51.382;7.074;2023-12-20T12:13:15;100240.59;;;9.18;66.09
80938;BME280;70395;51.382;7.074;2023-12-20T12:15:42;100239.63;;;9.19;65.83
80938;BME280;70395;51.382;7.074;2023-12-20T12:18:08;100239.63;;;9.19;65.77
80938;BME280;70395;51.382;7.074;2023-12-20T12:20:35;100236.94;;;9.19;65.83
80938;BME280;70395;51.382;7.074;2023-12-20T12:23:06;100229.75;;;9.19;65.97
80938;BME280;70395;51.382;7.074;2023-12-20T12:25:35;100235.94;;;9.20;65.96
80938;BME280;70395;51.382;7.074;2023-12-20T12:28:02;100231.44;;;9.20;66.01
80938;BME280;70395;51.382;7.074;2023-12-20T12:30:28;100228.34;;;9.15;65.81
80938;BME280;70395;51.382;7.074;2023-12-20T12:32:56;100224.25;;;9.11;66.05
80938;BME280;70395;51.382;7.074;2023-12-20T12:35:23;100237.63;;;9.11;66.04
80938;BME280;70395;51.382;7.074;2023-12-20T12:37:50;100221.56;;;9.11;66.22
80938;BME280;70395;51.382;7.074;2023-12-20T12:40:17;100226.94;;;9.11;65.96
80938;BME280;70395;51.382;7.074;2023-12-20T12:42:45;100231.28;;;9.12;66.17
80938;BME280;70395;51.382;7.074;2023-12-20T12:45:11;100227.47;;;9.15;66.29
80938;BME280;70395;51.382;7.074;2023-12-20T12:47:38;100231.84;;;9.16;66.35
80938;BME280;70395;51.382;7.074;2023-12-20T12:50:05;100225.53;;;9.17;66.07
80938;BME280;70395;51.382;7.074;2023-12-20T12:52:31;100220.19;;;9.17;66.09
80938;BME280;70395;51.382;7.074;2023-12-20T12:54:57;100220.19;;;9.17;66.38
80938;BME280;70395;51.382;7.074;2023-12-20T12:57:23;100217.34;;;9.18;66.33
80938;BME280;70395;51.382;7.074;2023-12-20T12:59:49;100221.84;;;9.18;66.20
80938;BME280;70395;51.382;7.074;2023-12-20T13:02:16;100215.97;;;9.14;66.06